sensor_id;sensor_type;location;lat;lon;timestamp;pressure;altitude;pressure_sealevel;temperature;humidity
24610;BME280;12758;47.890;11.694;2022-09-02T00:02:20;93938.06;;;16.62;61.56
24610;BME280;12758;47.890;11.694;2022-09-02T00:04:47;93934.13;;;16.60;61.32
24610;BME280;12758;47.890;11.694;2022-09-02T00:07:13;93927.84;;;16.59;60.99
24610;BME280;12758;47.890;11.694;2022-09-02T00:09:39;93931.00;;;16.61;61.22
24610;BME280;12758;47.890;11.694;2022-09-02T00:12:06;93925.47;;;16.58;61.48
24610;BME280;12758;47.890;11.694;2022-09-02T00:14:35;93919.94;;;16.54;61.17
24610;BME280;12758;47.890;11.694;2022-09-02T00:17:02;93911.28;;;16.52;61.43
24610;BME280;12758;47.890;11.694;2022-09-02T00:19:28;93916.03;;;16.55;61.05
24610;BME280;12758;47.890;11.694;2022-09-02T00:21:56;93922.22;;;16.52;61.27
24610;BME280;12758;47.890;11.694;2022-09-02T00:24:23;93921.44;;;16.51;61.22
24610;BME280;12758;47.890;11.694;2022-09-02T00:26:49;93915.13;;;16.47;61.38
24610;BME280;12758;47.890;11.694;2022-09-02T00:29:15;93915.13;;;16.47;60.94
24610;BME280;12758;47.890;11.694;2022-09-02T00:31:43;93917.41;;;16.45;61.30
24610;BME280;12758;47.890;11.694;2022-09-02T00:34:09;93907.97;;;16.43;61.36
24610;BME280;12758;47.890;11.694;2022-09-02T00:36:35;93911.09;;;16.41;61.26
24610;BME280;12758;47.890;11.694;2022-09-02T00:39:03;93904.81;;;16.41;61.54
24610;BME280;12758;47.890;11.694;2022-09-02T00:41:30;93905.53;;;16.38;61.10
24610;BME280;12758;47.890;11.694;2022-09-02T00:43:58;93911.03;;;16.38;61.37
24610;BME280;12758;47.890;11.694;2022-09-02T00:46:26;93905.09;;;16.36;61.31
24610;BME280;12758;47.890;11.694;2022-09-02T00:48:56;93907.84;;;16.36;61.06
24610;BME280;12758;47.890;11.694;2022-09-02T00:51:24;93899.13;;;16.30;61.10
24610;BME280;12758;47.890;11.694;2022-09-02T00:53:51;93905.38;;;16.30;61.10
24610;BME280;12758;47.890;11.694;2022-09-02T00:56:19;93899.91;;;16.30;61.39
24610;BME280;12758;47.890;11.694;2022-09-02T00:58:46;93894.03;;;16.28;61.09
24610;BME280;12758;47.890;11.694;2022-09-02T01:01:13;93893.25;;;16.28;61.02
24610;BME280;12758;47.890;11.694;2022-09-02T01:03:39;93893.59;;;16.26;60.88
24610;BME280;12758;47.890;11.694;2022-09-02T01:06:07;93893.16;;;16.24;61.30
24610;BME280;12758;47.890;11.694;2022-09-02T01:08:35;93898.22;;;16.22;61.20
24610;BME280;12758;47.890;11.694;2022-09-02T01:11:04;93899.38;;;16.21;61.30
24610;BME280;12758;47.890;11.694;2022-09-02T01:13:35;93898.94;;;16.19;61.14
24610;BME280;12758;47.890;11.694;2022-09-02T01:16:05;93898.16;;;16.19;61.40
24610;BME280;12758;47.890;11.694;2022-09-02T01:18:35;93890.28;;;16.17;61.53
24610;BME280;12758;47.890;11.694;2022-09-02T01:21:01;93892.59;;;16.15;61.72
24610;BME280;12758;47.890;11.694;2022-09-02T01:23:28;93894.91;;;16.13;61.28
24610;BME280;12758;47.890;11.694;2022-09-02T01:25:55;93890.16;;;16.10;61.72
24610;BME280;12758;47.890;11.694;2022-09-02T01:28:21;93885.84;;;16.09;61.39
24610;BME280;12758;47.890;11.694;2022-09-02T01:30:49;93885.41;;;16.07;61.66
24610;BME280;12758;47.890;11.694;2022-09-02T01:33:17;93881.09;;;16.06;61.71
24610;BME280;12758;47.890;11.694;2022-09-02T01:35:44;93883.38;;;16.04;61.48
24610;BME280;12758;47.890;11.694;2022-09-02T01:38:10;93879.06;;;16.03;61.58
24610;BME280;12758;47.890;11.694;2022-09-02T01:40:37;93875.88;;;16.01;61.25
24610;BME280;12758;47.890;11.694;2022-09-02T01:43:04;93886.84;;;16.01;61.54
24610;BME280;12758;47.890;11.694;2022-09-02T01:45:32;93883.69;;;15.99;61.59
24610;BME280;12758;47.890;11.694;2022-09-02T01:47:58;93884.47;;;15.99;61.69
24610;BME280;12758;47.890;11.694;2022-09-02T01:50:24;93883.25;;;15.97;61.41
24610;BME280;12758;47.890;11.694;2022-09-02T01:52:50;93878.13;;;15.95;61.62
24610;BME280;12758;47.890;11.694;2022-09-02T01:55:16;93882.81;;;15.95;61.66
24610;BME280;12758;47.890;11.694;2022-09-02T01:57:43;93879.22;;;15.91;61.62
24610;BME280;12758;47.890;11.694;2022-09-02T02:00:11;93883.53;;;15.92;61.25
24610;BME280;12758;47.890;11.694;2022-09-02T02:02:37;93880.72;;;15.88;61.53
24610;BME280;12758;47.890;11.694;2022-09-02T02:05:03;93874.84;;;15.86;61.74
24610;BME280;12758;47.890;11.694;2022-09-02T02:07:29;93877.91;;;15.84;61.36
24610;BME280;12758;47.890;11.694;2022-09-02T02:09:56;93877.13;;;15.84;61.53
24610;BME280;12758;47.890;11.694;2022-09-02T02:12:22;93869.25;;;15.82;61.20
24610;BME280;12758;47.890;11.694;2022-09-02T02:14:48;93873.16;;;15.81;61.81
24610;BME280;12758;47.890;11.694;2022-09-02T02:17:14;93874.75;;;15.82;61.26
24610;BME280;12758;47.890;11.694;2022-09-02T02:19:41;93865.31;;;15.80;61.33
24610;BME280;12758;47.890;11.694;2022-09-02T02:22:08;93868.41;;;15.78;61.75
24610;BME280;12758;47.890;11.694;2022-09-02T02:24:34;93865.25;;;15.76;61.47
24610;BME280;12758;47.890;11.694;2022-09-02T02:27:00;93863.66;;;15.75;61.35
24610;BME280;12758;47.890;11.694;2022-09-02T02:29:27;93862.88;;;15.75;61.25
24610;BME280;12758;47.890;11.694;2022-09-02T02:31:53;93853.44;;;15.72;61.62
24610;BME280;12758;47.890;11.694;2022-09-02T02:34:19;93858.47;;;15.70;61.57
24610;BME280;12758;47.890;11.694;2022-09-02T02:36:45;93861.22;;;15.70;61.70
24610;BME280;12758;47.890;11.694;2022-09-02T02:39:11;93860.78;;;15.68;61.70
24610;BME280;12758;47.890;11.694;2022-09-02T02:41:38;93854.84;;;15.66;61.51
24610;BME280;12758;47.890;11.694;2022-09-02T02:44:05;93851.69;;;15.64;61.64
24610;BME280;12758;47.890;11.694;2022-09-02T02:46:31;93852.81;;;15.63;61.77
24610;BME280;12758;47.890;11.694;2022-09-02T02:49:00;93859.44;;;15.62;61.64
24610;BME280;12758;47.890;11.694;2022-09-02T02:51:27;93856.25;;;15.60;61.56
24610;BME280;12758;47.890;11.694;2022-09-02T02:53:53;93850.38;;;15.58;61.57
24610;BME280;12758;47.890;11.694;2022-09-02T02:56:19;93853.13;;;15.58;61.85
24610;BME280;12758;47.890;11.694;2022-09-02T02:58:45;93858.16;;;15.56;61.52
24610;BME280;12758;47.890;11.694;2022-09-02T03:01:11;93845.97;;;15.53;61.58
24610;BME280;12758;47.890;11.694;2022-09-02T03:03:37;93853.38;;;15.53;61.75
24610;BME280;12758;47.890;11.694;2022-09-02T03:06:04;93842.03;;;15.51;61.88
24610;BME280;12758;47.890;11.694;2022-09-02T03:08:30;93844.78;;;15.51;61.78
24610;BME280;12758;47.890;11.694;2022-09-02T03:10:57;93843.53;;;15.48;61.66
24610;BME280;12758;47.890;11.694;2022-09-02T03:13:24;93838.78;;;15.45;62.20
24610;BME280;12758;47.890;11.694;2022-09-02T03:15:51;93833.66;;;15.44;62.20
24610;BME280;12758;47.890;11.694;2022-09-02T03:18:18;93830.13;;;15.43;61.89
24610;BME280;12758;47.890;11.694;2022-09-02T03:20:44;93833.25;;;15.42;61.59
24610;BME280;12758;47.890;11.694;2022-09-02T03:23:11;93832.78;;;15.40;61.79
24610;BME280;12758;47.890;11.694;2022-09-02T03:25:40;93835.84;;;15.34;61.49
24610;BME280;12758;47.890;11.694;2022-09-02T03:28:06;93830.78;;;15.36;61.76
24610;BME280;12758;47.890;11.694;2022-09-02T03:30:32;93824.53;;;15.36;62.10
24610;BME280;12758;47.890;11.694;2022-09-02T03:33:00;93827.63;;;15.34;61.73
24610;BME280;12758;47.890;11.694;2022-09-02T03:35:27;93826.03;;;15.33;61.52
24610;BME280;12758;47.890;11.694;2022-09-02T03:37:54;93822.06;;;15.31;62.18
24610;BME280;12758;47.890;11.694;2022-09-02T03:40:22;93826.75;;;15.30;61.62
24610;BME280;12758;47.890;11.694;2022-09-02T03:42:49;93825.16;;;15.29;61.78
24610;BME280;12758;47.890;11.694;2022-09-02T03:45:16;93819.25;;;15.27;61.75
24610;BME280;12758;47.890;11.694;2022-09-02T03:47:42;93813.38;;;15.25;61.99
24610;BME280;12758;47.890;11.694;2022-09-02T03:50:15;93815.66;;;15.23;61.93
24610;BME280;12758;47.890;11.694;2022-09-02T03:52:41;93821.13;;;15.23;61.99
24610;BME280;12758;47.890;11.694;2022-09-02T03:55:08;93811.34;;;15.22;61.88
24610;BME280;12758;47.890;11.694;2022-09-02T03:57:36;93817.94;;;15.21;62.01
24610;BME280;12758;47.890;11.694;2022-09-02T04:00:03;93815.59;;;15.20;62.13
24610;BME280;12758;47.890;11.694;2022-09-02T04:02:29;93817.88;;;15.18;62.12
24610;BME280;12758;47.890;11.694;2022-09-02T04:04:55;93814.34;;;15.17;61.91
24610;BME280;12758;47.890;11.694;2022-09-02T04:07:21;93819.38;;;15.15;61.80
24610;BME280;12758;47.890;11.694;2022-09-02T04:09:47;93816.22;;;15.13;62.08
24610;BME280;12758;47.890;11.694;2022-09-02T04:12:13;93820.91;;;15.12;62.16
24610;BME280;12758;47.890;11.694;2022-09-02T04:14:40;93815.38;;;15.09;61.86
24610;BME280;12758;47.890;11.694;2022-09-02T04:17:06;93811.47;;;15.10;62.05
24610;BME280;12758;47.890;11.694;2022-09-02T04:19:33;93815.38;;;15.09;62.17
24610;BME280;12758;47.890;11.694;2022-09-02T04:21:59;93812.97;;;15.07;62.21
24610;BME280;12758;47.890;11.694;2022-09-02T04:24:25;93812.19;;;15.07;62.25
24610;BME280;12758;47.890;11.694;2022-09-02T04:26:51;93811.75;;;15.05;62.06
24610;BME280;12758;47.890;11.694;2022-09-02T04:29:17;93812.91;;;15.04;62.17
24610;BME280;12758;47.890;11.694;2022-09-02T04:31:44;93816.78;;;15.03;62.24
24610;BME280;12758;47.890;11.694;2022-09-02T04:34:10;93819.06;;;15.01;62.27
24610;BME280;12758;47.890;11.694;2022-09-02T04:36:36;93824.53;;;15.01;62.13
24610;BME280;12758;47.890;11.694;2022-09-02T04:39:02;93819.06;;;15.01;62.30
24610;BME280;12758;47.890;11.694;2022-09-02T04:41:29;93821.38;;;14.99;62.28
24610;BME280;12758;47.890;11.694;2022-09-02T04:43:56;93819.72;;;14.94;61.87
24610;BME280;12758;47.890;11.694;2022-09-02T04:46:23;93817.78;;;14.95;62.53
24610;BME280;12758;47.890;11.694;2022-09-02T04:48:50;93826.75;;;14.95;62.73
24610;BME280;12758;47.890;11.694;2022-09-02T04:51:17;93821.66;;;14.94;62.83
24610;BME280;12758;47.890;11.694;2022-09-02T04:53:44;93830.19;;;14.92;63.07
24610;BME280;12758;47.890;11.694;2022-09-02T04:56:12;93819.28;;;14.92;62.93
24610;BME280;12758;47.890;11.694;2022-09-02T04:58:40;93829.78;;;14.90;63.11
24610;BME280;12758;47.890;11.694;2022-09-02T05:01:06;93821.91;;;14.88;63.13
24610;BME280;12758;47.890;11.694;2022-09-02T05:03:33;93818.16;;;14.77;63.37
24610;BME280;12758;47.890;11.694;2022-09-02T05:06:01;93818.31;;;14.84;63.63
24610;BME280;12758;47.890;11.694;2022-09-02T05:08:28;93824.13;;;14.83;63.78
24610;BME280;12758;47.890;11.694;2022-09-02T05:10:54;93817.09;;;14.82;63.72
24610;BME280;12758;47.890;11.694;2022-09-02T05:13:20;93825.66;;;14.80;63.93
24610;BME280;12758;47.890;11.694;2022-09-02T05:15:48;93825.22;;;14.78;63.94
24610;BME280;12758;47.890;11.694;2022-09-02T05:18:14;93818.44;;;14.72;63.80
24610;BME280;12758;47.890;11.694;2022-09-02T05:20:40;93817.28;;;14.73;64.35
24610;BME280;12758;47.890;11.694;2022-09-02T05:23:08;93816.22;;;14.78;64.22
24610;BME280;12758;47.890;11.694;2022-09-02T05:25:36;93820.91;;;14.77;64.38
24610;BME280;12758;47.890;11.694;2022-09-02T05:28:02;93829.09;;;14.77;64.28
24610;BME280;12758;47.890;11.694;2022-09-02T05:30:28;93825.47;;;14.73;64.46
24610;BME280;12758;47.890;11.694;2022-09-02T05:32:54;93824.75;;;14.76;64.54
24610;BME280;12758;47.890;11.694;2022-09-02T05:35:21;93825.56;;;14.77;64.72
24610;BME280;12758;47.890;11.694;2022-09-02T05:37:47;93820.91;;;14.77;64.54
24610;BME280;12758;47.890;11.694;2022-09-02T05:40:14;93824.75;;;14.76;64.89
24610;BME280;12758;47.890;11.694;2022-09-02T05:42:40;93825.47;;;14.73;64.85
24610;BME280;12758;47.890;11.694;2022-09-02T05:45:06;93824.59;;;14.69;65.06
24610;BME280;12758;47.890;11.694;2022-09-02T05:47:33;93824.69;;;14.73;65.14
24610;BME280;12758;47.890;11.694;2022-09-02T05:49:59;93823.88;;;14.72;65.18
24610;BME280;12758;47.890;11.694;2022-09-02T05:52:26;93823.88;;;14.72;65.22
24610;BME280;12758;47.890;11.694;2022-09-02T05:54:52;93823.88;;;14.72;65.17
24610;BME280;12758;47.890;11.694;2022-09-02T05:57:19;93820.00;;;14.73;65.42
24610;BME280;12758;47.890;11.694;2022-09-02T05:59:46;93823.88;;;14.72;65.57
24610;BME280;12758;47.890;11.694;2022-09-02T06:02:15;93815.25;;;14.70;65.58
24610;BME280;12758;47.890;11.694;2022-09-02T06:04:42;93821.88;;;14.69;65.59
24610;BME280;12758;47.890;11.694;2022-09-02T06:07:09;93827.00;;;14.71;65.52
24610;BME280;12758;47.890;11.694;2022-09-02T06:09:35;93822.31;;;14.71;65.51
24610;BME280;12758;47.890;11.694;2022-09-02T06:12:02;93819.94;;;14.70;65.87
24610;BME280;12758;47.890;11.694;2022-09-02T06:14:29;93823.03;;;14.68;65.98
24610;BME280;12758;47.890;11.694;2022-09-02T06:16:56;93823.81;;;14.68;66.08
24610;BME280;12758;47.890;11.694;2022-09-02T06:19:23;93819.13;;;14.69;66.34
24610;BME280;12758;47.890;11.694;2022-09-02T06:21:50;93822.31;;;14.71;65.95
24610;BME280;12758;47.890;11.694;2022-09-02T06:24:16;93813.66;;;14.69;66.24
24610;BME280;12758;47.890;11.694;2022-09-02T06:26:42;93816.78;;;14.67;66.50
24610;BME280;12758;47.890;11.694;2022-09-02T06:29:09;93810.53;;;14.67;66.47
24610;BME280;12758;47.890;11.694;2022-09-02T06:31:37;93819.13;;;14.69;66.45
24610;BME280;12758;47.890;11.694;2022-09-02T06:34:04;93818.28;;;14.65;66.98
24610;BME280;12758;47.890;11.694;2022-09-02T06:36:30;93818.28;;;14.65;66.84
24610;BME280;12758;47.890;11.694;2022-09-02T06:38:58;93815.53;;;14.65;66.86
24610;BME280;12758;47.890;11.694;2022-09-02T06:41:26;93812.81;;;14.65;67.49
24610;BME280;12758;47.890;11.694;2022-09-02T06:43:54;93818.28;;;14.65;67.15
24610;BME280;12758;47.890;11.694;2022-09-02T06:46:23;93815.53;;;14.65;67.39
24610;BME280;12758;47.890;11.694;2022-09-02T06:48:51;93822.16;;;14.64;67.87
24610;BME280;12758;47.890;11.694;2022-09-02T06:51:17;93821.34;;;14.63;67.62
24610;BME280;12758;47.890;11.694;2022-09-02T06:53:44;93829.91;;;14.62;68.04
24610;BME280;12758;47.890;11.694;2022-09-02T06:56:10;93830.69;;;14.62;68.03
24610;BME280;12758;47.890;11.694;2022-09-02T06:58:36;93836.94;;;14.63;68.36
24610;BME280;12758;47.890;11.694;2022-09-02T07:01:02;93826.81;;;14.63;68.45
24610;BME280;12758;47.890;11.694;2022-09-02T07:03:28;93831.47;;;14.63;68.44
24610;BME280;12758;47.890;11.694;2022-09-02T07:06:13;93831.47;;;14.63;69.09
24610;BME280;12758;47.890;11.694;2022-09-02T07:08:41;93838.88;;;14.62;68.83
24610;BME280;12758;47.890;11.694;2022-09-02T07:11:14;93836.94;;;14.63;69.13
24610;BME280;12758;47.890;11.694;2022-09-02T07:13:40;93831.47;;;14.63;69.12
24610;BME280;12758;47.890;11.694;2022-09-02T07:16:06;93845.94;;;14.63;69.11
24610;BME280;12758;47.890;11.694;2022-09-02T07:18:32;93836.94;;;14.63;69.47
24610;BME280;12758;47.890;11.694;2022-09-02T07:20:59;93839.25;;;14.61;69.46
24610;BME280;12758;47.890;11.694;2022-09-02T07:23:26;93833.78;;;14.61;69.41
24610;BME280;12758;47.890;11.694;2022-09-02T07:25:52;93835.72;;;14.60;69.53
24610;BME280;12758;47.890;11.694;2022-09-02T07:28:20;93835.38;;;14.62;69.64
24610;BME280;12758;47.890;11.694;2022-09-02T07:30:46;93835.38;;;14.62;69.53
24610;BME280;12758;47.890;11.694;2022-09-02T07:33:13;93839.97;;;14.58;70.21
24610;BME280;12758;47.890;11.694;2022-09-02T07:35:40;93833.78;;;14.61;69.97
24610;BME280;12758;47.890;11.694;2022-09-02T07:38:06;93833.78;;;14.61;70.11
24610;BME280;12758;47.890;11.694;2022-09-02T07:40:33;93840.13;;;14.65;70.10
24610;BME280;12758;47.890;11.694;2022-09-02T07:43:00;93839.66;;;14.63;69.94
24610;BME280;12758;47.890;11.694;2022-09-02T07:45:26;93837.38;;;14.65;70.24
24610;BME280;12758;47.890;11.694;2022-09-02T07:47:52;93837.91;;;14.39;72.21
24610;BME280;12758;47.890;11.694;2022-09-02T07:50:19;93832.88;;;14.57;71.37
24610;BME280;12758;47.890;11.694;2022-09-02T07:52:45;93837.47;;;14.53;72.86
24610;BME280;12758;47.890;11.694;2022-09-02T07:55:11;93838.09;;;14.62;71.06
24610;BME280;12758;47.890;11.694;2022-09-02T07:57:38;93833.09;;;14.64;70.86
24610;BME280;12758;47.890;11.694;2022-09-02T08:00:05;93835.09;;;14.67;70.84
24610;BME280;12758;47.890;11.694;2022-09-02T08:02:32;93842.16;;;14.68;70.90
24610;BME280;12758;47.890;11.694;2022-09-02T08:04:58;93838.97;;;14.66;70.71
24610;BME280;12758;47.890;11.694;2022-09-02T08:07:24;93839.41;;;14.68;70.92
24610;BME280;12758;47.890;11.694;2022-09-02T08:09:50;93841.00;;;14.69;70.62
24610;BME280;12758;47.890;11.694;2022-09-02T08:12:17;93843.38;;;14.71;71.86
24610;BME280;12758;47.890;11.694;2022-09-02T08:14:43;93837.84;;;14.67;72.79
24610;BME280;12758;47.890;11.694;2022-09-02T08:17:09;93846.84;;;14.52;74.73
24610;BME280;12758;47.890;11.694;2022-09-02T08:19:35;93846.84;;;14.52;76.67
24610;BME280;12758;47.890;11.694;2022-09-02T08:22:03;93842.94;;;14.53;76.83
24610;BME280;12758;47.890;11.694;2022-09-02T08:24:30;93846.34;;;14.81;75.57
24610;BME280;12758;47.890;11.694;2022-09-02T08:26:56;93842.13;;;14.84;74.94
24610;BME280;12758;47.890;11.694;2022-09-02T08:29:22;93840.00;;;14.93;74.30
24610;BME280;12758;47.890;11.694;2022-09-02T08:31:49;93846.41;;;15.01;73.72
24610;BME280;12758;47.890;11.694;2022-09-02T08:34:15;93842.81;;;14.97;73.43
24610;BME280;12758;47.890;11.694;2022-09-02T08:36:41;93840.78;;;14.94;73.95
24610;BME280;12758;47.890;11.694;2022-09-02T08:39:08;93832.28;;;14.99;73.21
24610;BME280;12758;47.890;11.694;2022-09-02T08:41:38;93831.50;;;14.98;73.18
24610;BME280;12758;47.890;11.694;2022-09-02T08:44:09;93828.44;;;15.00;73.11
24610;BME280;12758;47.890;11.694;2022-09-02T08:46:36;93831.50;;;14.98;73.15
24610;BME280;12758;47.890;11.694;2022-09-02T08:49:06;93824.47;;;14.97;73.12
24610;BME280;12758;47.890;11.694;2022-09-02T08:51:35;93830.38;;;14.99;73.86
24610;BME280;12758;47.890;11.694;2022-09-02T08:54:07;93828.50;;;15.03;72.82
24610;BME280;12758;47.890;11.694;2022-09-02T08:56:34;93820.72;;;15.05;73.12
24610;BME280;12758;47.890;11.694;2022-09-02T08:59:00;93821.97;;;15.08;73.42
24610;BME280;12758;47.890;11.694;2022-09-02T09:01:32;93825.13;;;15.10;72.78
24610;BME280;12758;47.890;11.694;2022-09-02T09:04:11;93820.00;;;15.08;73.54
24610;BME280;12758;47.890;11.694;2022-09-02T09:06:48;93825.06;;;15.06;73.70
24610;BME280;12758;47.890;11.694;2022-09-02T09:09:19;93824.34;;;15.09;74.82
24610;BME280;12758;47.890;11.694;2022-09-02T09:11:52;93819.81;;;15.17;72.78
24610;BME280;12758;47.890;11.694;2022-09-02T09:14:22;93825.88;;;15.26;72.99
24610;BME280;12758;47.890;11.694;2022-09-02T09:16:54;93833.88;;;15.35;74.96
24610;BME280;12758;47.890;11.694;2022-09-02T09:19:26;93827.91;;;15.29;74.62
24610;BME280;12758;47.890;11.694;2022-09-02T09:21:55;93823.88;;;15.43;72.94
24610;BME280;12758;47.890;11.694;2022-09-02T09:24:27;93825.75;;;15.38;77.02
24610;BME280;12758;47.890;11.694;2022-09-02T09:26:55;93821.50;;;15.41;75.41
24610;BME280;12758;47.890;11.694;2022-09-02T09:29:21;93815.22;;;15.60;72.90
24610;BME280;12758;47.890;11.694;2022-09-02T09:31:50;93814.88;;;15.61;73.30
24610;BME280;12758;47.890;11.694;2022-09-02T09:34:18;93814.16;;;15.65;73.19
24610;BME280;12758;47.890;11.694;2022-09-02T09:36:50;93808.91;;;15.75;73.94
24610;BME280;12758;47.890;11.694;2022-09-02T09:39:18;93810.66;;;15.83;72.16
24610;BME280;12758;47.890;11.694;2022-09-02T09:41:45;93808.75;;;15.88;72.36
24610;BME280;12758;47.890;11.694;2022-09-02T09:44:27;93813.28;;;15.99;70.91
24610;BME280;12758;47.890;11.694;2022-09-02T09:46:59;93800.69;;;15.95;71.71
24610;BME280;12758;47.890;11.694;2022-09-02T09:49:25;93794.91;;;16.00;71.10
24610;BME280;12758;47.890;11.694;2022-09-02T09:51:53;93800.06;;;16.05;70.58
24610;BME280;12758;47.890;11.694;2022-09-02T09:54:19;93806.44;;;16.09;70.70
24610;BME280;12758;47.890;11.694;2022-09-02T09:56:46;93799.50;;;16.15;70.29
24610;BME280;12758;47.890;11.694;2022-09-02T09:59:31;93805.03;;;16.19;69.97
24610;BME280;12758;47.890;11.694;2022-09-02T10:01:59;93807.44;;;16.24;69.79
24610;BME280;12758;47.890;11.694;2022-09-02T10:04:28;93808.69;;;16.26;70.21
24610;BME280;12758;47.890;11.694;2022-09-02T10:06:55;93797.53;;;16.39;68.89
24610;BME280;12758;47.890;11.694;2022-09-02T10:09:29;93794.38;;;16.37;69.68
24610;BME280;12758;47.890;11.694;2022-09-02T10:11:58;93803.13;;;16.46;68.99
24610;BME280;12758;47.890;11.694;2022-09-02T10:14:25;93801.63;;;16.48;69.08
24610;BME280;12758;47.890;11.694;2022-09-02T10:16:57;93803.81;;;16.39;69.34
24610;BME280;12758;47.890;11.694;2022-09-02T10:19:28;93798.72;;;16.38;70.26
24610;BME280;12758;47.890;11.694;2022-09-02T10:22:08;93788.22;;;16.43;69.81
24610;BME280;12758;47.890;11.694;2022-09-02T10:24:48;93792.56;;;16.44;69.33
24610;BME280;12758;47.890;11.694;2022-09-02T10:27:23;93798.50;;;16.50;69.79
24610;BME280;12758;47.890;11.694;2022-09-02T10:29:53;93797.34;;;16.51;69.89
24610;BME280;12758;47.890;11.694;2022-09-02T10:32:38;93790.88;;;16.63;69.01
24610;BME280;12758;47.890;11.694;2022-09-02T10:35:11;93790.06;;;16.62;68.99
24610;BME280;12758;47.890;11.694;2022-09-02T10:37:59;93789.69;;;16.60;70.07
24610;BME280;12758;47.890;11.694;2022-09-02T10:40:32;93787.38;;;16.66;69.36
24610;BME280;12758;47.890;11.694;2022-09-02T10:43:04;93780.09;;;16.73;68.42
24610;BME280;12758;47.890;11.694;2022-09-02T10:45:34;93770.59;;;16.67;69.65
24610;BME280;12758;47.890;11.694;2022-09-02T10:48:23;93775.34;;;16.70;68.52
24610;BME280;12758;47.890;11.694;2022-09-02T10:50:54;93767.53;;;16.72;68.43
24610;BME280;12758;47.890;11.694;2022-09-02T10:53:31;93773.91;;;16.76;68.62
24610;BME280;12758;47.890;11.694;2022-09-02T10:55:58;93769.84;;;16.70;68.75
24610;BME280;12758;47.890;11.694;2022-09-02T10:58:34;93773.22;;;16.83;68.43
24610;BME280;12758;47.890;11.694;2022-09-02T11:01:02;93769.28;;;16.84;67.76
24610;BME280;12758;47.890;11.694;2022-09-02T11:03:29;93772.81;;;16.85;67.88
24610;BME280;12758;47.890;11.694;2022-09-02T11:06:02;93765.34;;;16.82;67.57
24610;BME280;12758;47.890;11.694;2022-09-02T11:08:34;93770.94;;;16.89;67.49
24610;BME280;12758;47.890;11.694;2022-09-02T11:11:04;93767.03;;;16.90;66.92
24610;BME280;12758;47.890;11.694;2022-09-02T11:13:34;93768.25;;;16.92;66.76
24610;BME280;12758;47.890;11.694;2022-09-02T11:16:05;93772.19;;;16.95;66.41
24610;BME280;12758;47.890;11.694;2022-09-02T11:18:37;93769.34;;;16.88;66.98
24610;BME280;12758;47.890;11.694;2022-09-02T11:21:09;93756.84;;;16.90;66.50
24610;BME280;12758;47.890;11.694;2022-09-02T11:23:44;93754.91;;;16.91;66.88
24610;BME280;12758;47.890;11.694;2022-09-02T11:26:16;93755.47;;;17.04;69.02
24610;BME280;12758;47.890;11.694;2022-09-02T11:28:47;93749.50;;;16.98;66.96
24610;BME280;12758;47.890;11.694;2022-09-02T11:31:19;93751.94;;;17.03;67.52
24610;BME280;12758;47.890;11.694;2022-09-02T11:33:49;93754.78;;;17.10;67.30
24610;BME280;12758;47.890;11.694;2022-09-02T11:36:17;93754.97;;;17.25;67.61
24610;BME280;12758;47.890;11.694;2022-09-02T11:38:49;93748.00;;;17.31;65.96
24610;BME280;12758;47.890;11.694;2022-09-02T11:41:50;93753.63;;;17.45;66.08
24610;BME280;12758;47.890;11.694;2022-09-02T11:44:33;93756.38;;;17.45;65.88
24610;BME280;12758;47.890;11.694;2022-09-02T11:47:22;93755.13;;;17.39;65.70
24610;BME280;12758;47.890;11.694;2022-09-02T11:50:06;93745.84;;;17.47;63.49
24610;BME280;12758;47.890;11.694;2022-09-02T11:52:44;93746.56;;;17.44;62.57
24610;BME280;12758;47.890;11.694;2022-09-02T11:55:19;93748.16;;;17.45;61.72
24610;BME280;12758;47.890;11.694;2022-09-02T11:57:50;93739.75;;;17.64;61.98
24610;BME280;12758;47.890;11.694;2022-09-02T12:00:28;93745.19;;;17.61;63.24
24610;BME280;12758;47.890;11.694;2022-09-02T12:03:16;93739.78;;;17.68;63.11
24610;BME280;12758;47.890;11.694;2022-09-02T12:05:48;93756.41;;;17.79;62.78
24610;BME280;12758;47.890;11.694;2022-09-02T12:11:37;93741.81;;;17.75;61.38
24610;BME280;12758;47.890;11.694;2022-09-02T12:14:07;93736.84;;;17.84;62.41
24610;BME280;12758;47.890;11.694;2022-09-02T12:16:40;93736.09;;;17.87;61.19
24610;BME280;12758;47.890;11.694;2022-09-02T12:19:27;93742.00;;;17.89;61.12
24610;BME280;12758;47.890;11.694;2022-09-02T12:22:25;93746.38;;;17.97;61.17
24610;BME280;12758;47.890;11.694;2022-09-02T12:24:53;93746.31;;;17.90;60.23
24610;BME280;12758;47.890;11.694;2022-09-02T12:27:27;93733.75;;;17.89;60.53
24610;BME280;12758;47.890;11.694;2022-09-02T12:29:54;93740.09;;;17.97;59.66
24610;BME280;12758;47.890;11.694;2022-09-02T12:35:50;93741.72;;;18.01;60.25
24610;BME280;12758;47.890;11.694;2022-09-02T12:38:23;93731.84;;;17.93;58.91
24610;BME280;12758;47.890;11.694;2022-09-02T12:40:53;93735.34;;;17.90;58.80
24610;BME280;12758;47.890;11.694;2022-09-02T12:43:24;93736.16;;;17.94;57.86
24610;BME280;12758;47.890;11.694;2022-09-02T12:45:52;93732.69;;;18.01;58.92
24610;BME280;12758;47.890;11.694;2022-09-02T12:48:19;93733.50;;;18.01;59.51
24610;BME280;12758;47.890;11.694;2022-09-02T12:50:51;93735.47;;;18.04;59.02
24610;BME280;12758;47.890;11.694;2022-09-02T12:53:28;93730.75;;;18.01;58.30
24610;BME280;12758;47.890;11.694;2022-09-02T12:55:57;93727.31;;;18.11;57.60
24610;BME280;12758;47.890;11.694;2022-09-02T12:58:28;93723.16;;;18.32;59.16
24610;BME280;12758;47.890;11.694;2022-09-02T13:01:01;93719.63;;;18.35;57.99
24610;BME280;12758;47.890;11.694;2022-09-02T13:03:38;93719.19;;;18.29;57.04
24610;BME280;12758;47.890;11.694;2022-09-02T13:06:10;93725.56;;;18.37;58.72